Portada
METAR-TAF:

METAR-TAF

Aeropuertos :

Aeropuerto Internacional de Harbin

Harbin, China

latitud: 45-45N, longitud: 126-46E, altitud: 143 m

Observación

El informe se hizo hace 55 minutos, a las 01:00 UTC
Viento 12 kt del sur-suroeste
Temperatura 27°C
Humedad 42%
Presión 999 hPa
Visibilidad 10 km o más
sin nubes por debajo de 1500 m y sin presencia de cumulonimbus.

METAR: ZYHB 220100Z 21006MPS CAVOK 27/13 Q0999 NOSIG

Hora: 09:55 (01:55 UTC)

Pronóstico

El informe se hizo hace 6 horas y 46 minutos, a las 19:09 UTC
Pronóstico válido del 22 a las 00 UTC al 22 a las 24 UTC
Viento 8 kt del sur
Visibilidad: 6000 m
Nubes dispersas a una altura de 3300 ft

TAF: ZYHB 211909Z 2200/2224 19004MPS 6000 SCT033 TX31/2206Z TN20/2200Z

Observaciones y pronósticos meteorológicos de más de 4000 aeropuertos (mensajes METAR y TAF).

Los puntos amarillos y rojos representan las estaciones disponibles.

Ponga el ratón en el punto deseado para ver el nombre de la estación.

Haga clic para ver las observaciones y los pronósticos meteorológicos.

Para cambiar el mapa : haga clic en los botones verdes con una cruz de color negro para hacer un zoom, en el botón verde con un guión para alejar o en las flechas verdes para mapas adyacentes.


METAR-TAF: